createdAt,value
2019-04-06T10:29:47.726Z,19.50
2019-04-06T10:32:29.793Z,19.60
2019-04-06T10:35:09.288Z,20.30
2019-04-06T10:37:59.976Z,20.60
2019-04-06T10:40:54.346Z,20.70
2019-04-06T10:43:34.070Z,21.10
2019-04-06T10:46:26.789Z,21.40
2019-04-06T10:49:32.352Z,21.80
2019-04-06T10:52:37.454Z,22.10
2019-04-06T10:55:29.341Z,22.60
2019-04-06T10:58:15.375Z,22.90
2019-04-06T11:01:09.261Z,23.30
2019-04-06T11:03:59.740Z,24.00
2019-04-06T11:06:43.295Z,24.50
2019-04-06T11:09:26.440Z,24.50
2019-04-06T11:12:12.776Z,24.20
2019-04-06T11:15:06.156Z,23.80
2019-04-06T11:17:53.565Z,23.20
2019-04-06T11:20:39.716Z,23.10
2019-04-06T11:23:25.924Z,23.60
2019-04-06T11:26:03.842Z,23.80
2019-04-06T11:28:51.219Z,23.70
2019-04-06T11:31:35.028Z,23.60
2019-04-06T11:34:10.804Z,23.10
2019-04-06T11:37:04.244Z,23.20
2019-04-06T11:39:40.050Z,23.30
2019-04-06T11:42:23.028Z,23.30
2019-04-06T11:45:19.722Z,22.70
2019-04-06T11:48:12.836Z,21.70
2019-04-06T11:51:00.976Z,21.50
2019-04-06T11:53:46.048Z,22.30
2019-04-06T11:56:39.589Z,23.10
2019-04-06T11:59:19.030Z,24.10
2019-04-06T12:02:00.356Z,23.50
2019-04-06T12:04:43.744Z,23.50
2019-04-06T12:07:17.460Z,22.90
2019-04-06T12:09:54.851Z,22.80
2019-04-06T12:12:42.253Z,23.00
2019-04-06T12:15:28.388Z,23.40
2019-04-06T12:18:17.586Z,23.80
2019-04-06T12:21:08.601Z,24.50
2019-04-06T12:23:54.189Z,24.60
2019-04-06T12:26:44.442Z,24.40
2019-04-06T12:29:31.872Z,24.60
2019-04-06T12:32:17.998Z,24.70
2019-04-06T12:34:56.449Z,24.00
2019-04-06T12:37:30.095Z,23.00
2019-04-06T12:40:21.896Z,22.30
2019-04-06T12:43:09.346Z,21.80
2019-04-06T12:45:55.242Z,21.50
2019-04-06T12:48:45.810Z,22.10
2019-04-06T12:51:33.981Z,21.90
2019-04-06T12:54:24.399Z,22.40
2019-04-06T12:57:15.780Z,22.20
2019-04-06T12:59:52.668Z,21.00
2019-04-06T13:02:38.612Z,20.50
2019-04-06T13:05:24.660Z,20.60
2019-04-06T13:08:14.996Z,21.10
2019-04-06T13:11:01.177Z,21.00
2019-04-06T13:13:41.650Z,20.40
2019-04-06T13:16:35.256Z,20.50
2019-04-06T13:19:25.738Z,20.80
2019-04-06T13:22:16.174Z,21.70
2019-04-06T13:25:09.592Z,23.20
2019-04-06T13:27:55.564Z,23.00
2019-04-06T13:30:45.887Z,23.10
2019-04-06T13:33:35.116Z,22.80
2019-04-06T13:36:10.435Z,22.60
2019-04-06T13:39:07.931Z,22.30
2019-04-06T13:41:48.825Z,22.60
2019-04-06T13:44:36.231Z,22.20
2019-04-06T13:47:32.521Z,21.40
2019-04-06T13:50:12.239Z,21.00
2019-04-06T13:53:08.969Z,20.20
2019-04-06T13:56:05.400Z,19.10
2019-04-06T13:58:51.160Z,18.10
2019-04-06T14:01:44.876Z,17.60
2019-04-06T14:04:35.176Z,17.10
2019-04-06T14:07:18.920Z,16.70
2019-04-06T14:10:02.227Z,16.60
2019-04-06T14:13:01.559Z,16.50
2019-04-06T14:15:52.000Z,16.30
2019-04-06T14:18:51.495Z,16.10
2019-04-06T14:21:41.698Z,16.30
2019-04-06T14:24:19.511Z,16.50
2019-04-06T14:27:09.850Z,16.20
2019-04-06T14:29:55.180Z,16.60
2019-04-06T14:32:57.730Z,17.10
2019-04-06T14:35:51.108Z,17.20
2019-04-06T14:38:47.801Z,16.90
2019-04-06T14:41:33.688Z,16.60
2019-04-06T14:44:21.175Z,16.20
2019-04-06T14:47:15.255Z,16.20
2019-04-06T14:49:55.406Z,16.10
2019-04-06T14:52:43.079Z,16.30
2019-04-06T14:55:30.501Z,16.50
2019-04-06T14:58:16.571Z,16.20
2019-04-06T15:00:52.087Z,16.00
2019-04-06T15:03:48.400Z,16.00
2019-04-06T15:06:40.760Z,17.20
2019-04-06T15:09:37.112Z,18.40
2019-04-06T15:12:36.747Z,18.80
2019-04-06T15:15:22.688Z,18.40
2019-04-06T15:18:08.212Z,17.80
2019-04-06T15:21:01.669Z,17.70
2019-04-06T15:23:52.040Z,17.20
2019-04-06T15:26:32.769Z,16.80
2019-04-06T15:29:25.719Z,16.40
2019-04-06T15:32:27.992Z,16.20
2019-04-06T15:35:12.669Z,15.60
2019-04-06T15:37:46.635Z,15.20
2019-04-06T15:40:32.109Z,14.90
2019-04-06T15:43:25.643Z,14.70
2019-04-06T15:46:02.778Z,14.50
2019-04-06T15:48:48.859Z,14.10
2019-04-06T15:51:23.442Z,13.70
2019-04-06T15:54:10.858Z,13.30
2019-04-06T15:56:52.963Z,13.10
2019-04-06T15:59:43.235Z,12.90
2019-04-06T16:02:48.640Z,12.90
2019-04-06T16:05:33.302Z,12.70
2019-04-06T16:08:26.736Z,12.60
2019-04-06T16:11:23.640Z,12.60
2019-04-06T16:14:23.143Z,12.50
2019-04-06T16:17:13.553Z,12.30
2019-04-06T16:19:50.849Z,11.90
2019-04-06T16:22:53.512Z,11.60
2019-04-06T16:25:36.167Z,11.50
2019-04-06T16:28:23.589Z,11.20
2019-04-06T16:31:11.307Z,11.20
2019-04-06T16:33:45.166Z,11.00
2019-04-06T16:36:31.005Z,10.80
2019-04-06T16:39:27.945Z,10.50
2019-04-06T16:42:12.116Z,10.30
2019-04-06T16:44:49.764Z,10.00
2019-04-06T16:47:40.193Z,9.80
2019-04-06T16:50:32.275Z,9.70
2019-04-06T16:53:14.964Z,9.50
2019-04-06T16:56:05.593Z,9.30
2019-04-06T16:58:52.948Z,9.20
2019-04-06T17:01:38.906Z,9.00
2019-04-06T17:04:26.413Z,8.80
2019-04-06T17:07:12.124Z,8.60
2019-04-06T17:10:02.464Z,8.30
2019-04-06T17:12:48.412Z,8.20
2019-04-06T17:15:35.107Z,8.10
2019-04-06T17:18:14.459Z,8.00
2019-04-06T18:34:11.525Z,5.60
2019-04-06T18:36:59.011Z,5.60
2019-04-06T18:39:27.687Z,5.60
2019-04-06T18:41:55.721Z,5.50
2019-04-06T18:44:24.041Z,5.50
2019-04-06T18:46:52.007Z,5.40
2019-04-06T18:49:20.454Z,5.40
2019-04-06T18:51:48.400Z,5.40
2019-04-06T18:54:16.520Z,5.40
2019-04-06T18:56:44.427Z,5.30
2019-04-06T18:59:12.941Z,5.30
2019-04-06T19:01:40.848Z,5.30
2019-04-06T19:04:08.780Z,5.30
2019-04-06T19:06:36.644Z,5.30
2019-04-06T19:09:14.773Z,5.20
2019-04-06T19:11:37.050Z,5.20
2019-04-06T19:14:05.016Z,5.10
2019-04-06T19:16:33.077Z,5.10
2019-04-06T19:19:01.351Z,5.10
2019-04-06T19:21:30.906Z,5.00
2019-04-06T19:23:58.865Z,5.00
2019-04-06T19:26:26.784Z,4.90
2019-04-06T19:28:55.288Z,4.90
2019-04-06T19:31:23.302Z,4.80
2019-04-06T19:33:51.223Z,4.80
2019-04-06T19:36:19.382Z,4.80
2019-04-06T19:38:47.391Z,4.70
2019-04-06T19:41:15.694Z,4.70
2019-04-06T19:43:44.295Z,4.60
2019-04-06T19:46:12.373Z,4.60
2019-04-06T19:48:40.748Z,4.50
2019-04-06T19:51:09.182Z,4.50
2019-04-06T19:53:37.203Z,4.50
2019-04-06T19:56:05.416Z,4.40
2019-04-06T19:58:33.539Z,4.40
2019-04-06T20:01:01.627Z,4.40
2019-04-06T20:03:35.954Z,4.40
2019-04-06T20:05:59.285Z,4.40
2019-04-06T20:08:27.232Z,4.40
2019-04-06T20:10:55.386Z,4.30
2019-04-06T20:13:23.346Z,4.30
2019-04-06T20:15:51.815Z,4.40
2019-04-06T20:18:19.798Z,4.30
2019-04-06T20:20:47.932Z,4.30
2019-04-06T20:23:17.677Z,4.30
2019-04-06T20:25:45.598Z,4.30
2019-04-06T20:28:13.536Z,4.30
2019-04-06T20:30:41.559Z,4.30
2019-04-06T20:33:09.700Z,4.30
2019-04-06T20:35:37.663Z,4.30
2019-04-06T20:38:05.482Z,4.30
2019-04-06T20:40:33.587Z,4.40
2019-04-06T20:43:01.744Z,4.40
2019-04-06T20:45:30.061Z,4.40
2019-04-06T20:47:58.502Z,4.50
2019-04-06T20:50:26.559Z,4.50
2019-04-06T20:52:54.955Z,4.50
2019-04-06T20:55:23.313Z,4.40
2019-04-06T20:57:51.701Z,4.40
2019-04-06T21:00:20.429Z,4.40
2019-04-06T21:02:48.668Z,4.40
2019-04-06T21:05:16.744Z,4.40
2019-04-06T21:07:44.931Z,4.40
2019-04-06T21:10:13.662Z,4.40
2019-04-06T21:12:42.137Z,4.40
2019-04-06T21:15:19.019Z,4.40
2019-04-06T21:17:39.930Z,4.40
2019-04-06T21:20:08.025Z,4.40
2019-04-06T21:22:36.133Z,4.40
2019-04-06T21:25:04.660Z,4.40
2019-04-06T21:27:32.549Z,4.40
2019-04-06T21:30:00.721Z,4.40
2019-04-06T21:32:29.207Z,4.30
2019-04-06T21:34:57.119Z,4.30
2019-04-06T21:37:25.445Z,4.30
2019-04-06T21:39:53.479Z,4.30
2019-04-06T21:42:21.934Z,4.30
2019-04-06T21:44:50.316Z,4.30
2019-04-06T21:47:18.475Z,4.30
2019-04-06T21:49:46.438Z,4.30
2019-04-06T21:52:14.368Z,4.30
2019-04-06T21:54:42.336Z,4.30
2019-04-06T21:57:10.584Z,4.30
2019-04-06T21:59:38.651Z,4.30
2019-04-06T22:02:07.226Z,4.30
2019-04-06T22:04:35.249Z,4.20
2019-04-06T22:07:03.690Z,4.20
2019-04-06T22:09:32.318Z,4.20
2019-04-06T22:12:00.379Z,4.10
2019-04-06T22:14:28.382Z,4.10
2019-04-06T22:16:57.417Z,4.00
2019-04-06T22:19:25.341Z,3.90
2019-04-06T22:21:53.248Z,3.90
2019-04-06T22:24:21.343Z,3.80
2019-04-06T22:26:49.655Z,3.80
2019-04-06T22:29:18.450Z,3.70
2019-04-06T22:31:46.414Z,3.60
2019-04-06T22:34:14.344Z,3.60
2019-04-06T22:36:42.428Z,3.50
2019-04-06T22:39:11.057Z,3.50
2019-04-06T22:41:39.024Z,3.40
2019-04-06T22:44:07.373Z,3.40
2019-04-06T22:46:35.425Z,3.40
2019-04-06T22:49:03.463Z,3.30
2019-04-06T22:51:31.392Z,3.30
2019-04-06T22:53:59.295Z,3.30
2019-04-06T22:56:27.233Z,3.30
2019-04-06T22:58:55.176Z,3.20
2019-04-06T23:01:24.122Z,3.20
2019-04-06T23:04:12.031Z,3.20
2019-04-06T23:06:43.207Z,3.10
2019-04-06T23:09:11.232Z,3.10
2019-04-06T23:11:39.108Z,3.00
2019-04-06T23:14:07.446Z,3.00
2019-04-06T23:16:35.575Z,2.90
2019-04-06T23:19:04.061Z,2.80
2019-04-06T23:21:31.944Z,2.70
2019-04-06T23:23:59.895Z,2.60
2019-04-06T23:26:27.808Z,2.50
2019-04-06T23:28:55.662Z,2.50
2019-04-06T23:31:23.615Z,2.40
2019-04-06T23:33:51.733Z,2.30
2019-04-06T23:36:19.607Z,2.20
2019-04-06T23:38:47.441Z,2.20
2019-04-06T23:41:15.347Z,2.10
2019-04-06T23:43:43.842Z,2.10
2019-04-06T23:46:11.781Z,2.10
2019-04-06T23:48:39.815Z,2.10
2019-04-06T23:51:07.992Z,2.10
2019-04-06T23:53:36.048Z,2.20
2019-04-06T23:56:04.335Z,2.20
2019-04-06T23:58:32.542Z,2.30
